createdAt,value
2023-04-12T00:00:52.414Z,0
2023-04-12T00:02:33.175Z,0
2023-04-12T00:04:13.463Z,0
2023-04-12T00:05:53.715Z,0
2023-04-12T00:07:34.109Z,0
2023-04-12T00:09:14.426Z,0
2023-04-12T00:10:54.862Z,0
2023-04-12T00:12:35.298Z,0
2023-04-12T00:14:15.653Z,0
2023-04-12T00:15:56.127Z,0
2023-04-12T00:17:36.542Z,0
2023-04-12T00:19:16.842Z,0
2023-04-12T00:20:57.202Z,0
2023-04-12T00:22:37.683Z,0
2023-04-12T00:24:18.148Z,0
2023-04-12T00:25:58.572Z,0
2023-04-12T00:27:38.956Z,0
2023-04-12T00:29:19.297Z,0
2023-04-12T00:30:59.687Z,0
2023-04-12T00:32:40.024Z,0
2023-04-12T00:34:20.403Z,0
2023-04-12T00:36:00.820Z,0
2023-04-12T00:37:41.092Z,0
2023-04-12T00:39:21.504Z,0
2023-04-12T00:41:01.815Z,0
2023-04-12T00:42:42.119Z,0
2023-04-12T00:44:22.559Z,0
2023-04-12T00:46:03.014Z,0
2023-04-12T00:47:43.652Z,0
2023-04-12T00:49:23.912Z,0
2023-04-12T00:51:04.422Z,0
2023-04-12T00:52:44.900Z,0
2023-04-12T00:54:25.196Z,0
2023-04-12T00:56:05.531Z,0
2023-04-12T00:57:45.963Z,0
2023-04-12T00:59:26.368Z,0
2023-04-12T01:01:06.937Z,0
2023-04-12T01:02:47.952Z,0
2023-04-12T01:04:27.722Z,0
2023-04-12T01:06:08.166Z,0
2023-04-12T01:07:48.589Z,0
2023-04-12T01:09:28.873Z,0
2023-04-12T01:11:09.314Z,0
2023-04-12T01:12:49.608Z,0
2023-04-12T01:14:29.900Z,0
2023-04-12T01:16:10.261Z,0
2023-04-12T01:17:50.682Z,0
2023-04-12T01:19:31.009Z,0
2023-04-12T01:21:11.381Z,0
2023-04-12T01:22:51.777Z,0
2023-04-12T01:24:32.184Z,0
2023-04-12T01:26:12.598Z,0
2023-04-12T01:27:53.020Z,0
2023-04-12T01:29:33.446Z,0
2023-04-12T01:31:13.852Z,0
2023-04-12T01:32:54.218Z,0
2023-04-12T01:34:34.600Z,0
2023-04-12T01:36:14.978Z,0
2023-04-12T01:37:55.366Z,0
2023-04-12T01:39:35.879Z,0
2023-04-12T01:41:16.332Z,0
2023-04-12T01:42:56.674Z,0
2023-04-12T01:44:37.022Z,0
2023-04-12T01:46:17.668Z,0
2023-04-12T01:47:57.837Z,0
2023-04-12T01:49:38.266Z,0
2023-04-12T01:51:18.708Z,0
2023-04-12T01:52:59.080Z,0
2023-04-12T01:54:39.415Z,0
2023-04-12T01:56:19.797Z,0
2023-04-12T01:58:00.144Z,0
2023-04-12T01:59:40.422Z,0
2023-04-12T02:01:20.759Z,0
2023-04-12T02:03:01.249Z,0
2023-04-12T02:04:41.559Z,0
2023-04-12T02:06:21.925Z,0
2023-04-12T02:08:02.395Z,0
2023-04-12T02:09:42.828Z,0
2023-04-12T02:11:23.177Z,0
2023-04-12T02:13:03.542Z,0
2023-04-12T02:14:44.090Z,0
2023-04-12T02:16:24.453Z,0
2023-04-12T02:18:04.934Z,0
2023-04-12T02:19:45.287Z,0
2023-04-12T02:21:25.654Z,0
2023-04-12T02:23:06.065Z,0
2023-04-12T02:24:46.418Z,0
2023-04-12T02:26:26.809Z,0
2023-04-12T02:28:07.329Z,0
2023-04-12T02:29:47.622Z,0
2023-04-12T02:31:28.051Z,0
2023-04-12T02:33:08.418Z,0
2023-04-12T02:34:48.759Z,0
2023-04-12T02:36:29.135Z,0
2023-04-12T02:38:09.624Z,0
2023-04-12T02:39:49.905Z,0
2023-04-12T02:41:30.230Z,0
2023-04-12T02:43:10.577Z,0
2023-04-12T02:44:50.818Z,0
2023-04-12T02:46:31.206Z,0
2023-04-12T02:48:11.545Z,0
2023-04-12T02:49:51.790Z,0
2023-04-12T02:51:32.109Z,0
2023-04-12T02:53:12.413Z,0
2023-04-12T02:54:52.758Z,0
2023-04-12T02:56:33.114Z,0
2023-04-12T02:58:13.636Z,0
2023-04-12T02:59:54.113Z,0
2023-04-12T03:01:34.461Z,0
2023-04-12T03:03:15.018Z,0
2023-04-12T03:04:55.228Z,0
2023-04-12T03:06:35.661Z,0
2023-04-12T03:08:17.125Z,0
2023-04-12T03:09:56.417Z,0
2023-04-12T03:11:36.921Z,0
2023-04-12T03:13:17.324Z,0
2023-04-12T03:14:57.740Z,0
2023-04-12T03:16:38.142Z,0
2023-04-12T03:18:18.639Z,0
2023-04-12T03:19:58.984Z,0
2023-04-12T03:21:39.324Z,0
2023-04-12T03:23:19.819Z,0
2023-04-12T03:25:00.219Z,0
2023-04-12T03:26:40.633Z,0
2023-04-12T03:28:20.936Z,0
2023-04-12T03:30:01.300Z,0
2023-04-12T03:31:41.654Z,0
2023-04-12T03:33:21.988Z,0
2023-04-12T03:35:02.433Z,0
2023-04-12T03:36:42.779Z,0
2023-04-12T03:38:23.131Z,0
2023-04-12T03:40:03.543Z,0
2023-04-12T03:41:43.924Z,0
2023-04-12T03:43:24.323Z,0
2023-04-12T03:45:04.756Z,0
2023-04-12T03:46:45.242Z,0
2023-04-12T03:48:25.551Z,0
2023-04-12T03:50:11.600Z,0
2023-04-12T03:51:46.312Z,0
2023-04-12T03:53:26.702Z,0
2023-04-12T03:55:07.392Z,0
2023-04-12T03:56:47.540Z,0
2023-04-12T03:58:27.905Z,0
2023-04-12T04:00:08.338Z,0
2023-04-12T04:01:48.783Z,0
2023-04-12T04:03:29.233Z,0
2023-04-12T04:05:09.557Z,0
2023-04-12T04:06:49.965Z,0
2023-04-12T04:08:30.341Z,0
2023-04-12T04:10:10.710Z,0
2023-04-12T04:11:51.049Z,0
2023-04-12T04:13:31.329Z,0
2023-04-12T04:15:11.721Z,0
2023-04-12T04:16:51.969Z,0
2023-04-12T04:18:32.274Z,0
2023-04-12T04:20:12.620Z,0
2023-04-12T04:21:53.019Z,0
2023-04-12T04:23:33.457Z,0
2023-04-12T04:25:13.960Z,0
2023-04-12T04:26:54.477Z,0
2023-04-12T04:28:35.226Z,0
2023-04-12T04:30:15.207Z,0
2023-04-12T04:31:55.517Z,0
2023-04-12T04:33:35.833Z,0
2023-04-12T04:35:16.251Z,0
2023-04-12T04:36:56.615Z,0
2023-04-12T04:38:37.003Z,0
2023-04-12T04:40:17.364Z,0
2023-04-12T04:41:57.790Z,0
2023-04-12T04:43:38.216Z,0
2023-04-12T04:45:18.556Z,0
2023-04-12T04:46:58.986Z,0
2023-04-12T04:48:39.416Z,1
2023-04-12T04:50:19.859Z,1
2023-04-12T04:52:00.181Z,1
2023-04-12T04:53:40.548Z,1
2023-04-12T04:55:20.948Z,1
2023-04-12T04:57:01.535Z,1
2023-04-12T04:58:41.892Z,1
2023-04-12T05:00:22.225Z,1
2023-04-12T05:02:02.680Z,1
2023-04-12T05:03:43.121Z,1
2023-04-12T05:05:23.589Z,1
2023-04-12T05:07:03.743Z,1
2023-04-12T05:08:44.083Z,1
2023-04-12T05:10:24.506Z,1
2023-04-12T05:12:04.925Z,1
2023-04-12T05:13:45.346Z,1
2023-04-12T05:15:25.753Z,1
2023-04-12T05:17:06.266Z,1
2023-04-12T05:18:46.560Z,2
2023-04-12T05:20:26.977Z,2
2023-04-12T05:22:07.459Z,2
2023-04-12T05:23:47.831Z,2
2023-04-12T05:25:28.267Z,2
2023-04-12T05:27:08.702Z,3
2023-04-12T05:28:49.108Z,3
2023-04-12T05:30:29.547Z,4
2023-04-12T05:32:09.817Z,6
2023-04-12T05:33:50.159Z,6
2023-04-12T05:35:30.697Z,6
2023-04-12T05:37:11.028Z,6
2023-04-12T05:38:51.361Z,6
2023-04-12T05:40:31.702Z,7
2023-04-12T05:42:11.965Z,7
2023-04-12T05:43:52.304Z,7
2023-04-12T05:45:32.660Z,8
2023-04-12T05:47:12.942Z,9
2023-04-12T05:48:53.243Z,9
2023-04-12T05:50:33.597Z,9
2023-04-12T05:52:14.041Z,9
2023-04-12T05:53:54.426Z,9
2023-04-12T05:55:37.318Z,9
2023-04-12T05:57:15.313Z,10
2023-04-12T05:58:56.012Z,7
2023-04-12T06:00:36.119Z,7
2023-04-12T06:02:16.495Z,6
2023-04-12T06:03:56.987Z,6
2023-04-12T06:05:37.391Z,6
2023-04-12T06:07:17.701Z,6
2023-04-12T06:08:58.333Z,6
2023-04-12T06:10:38.594Z,6
2023-04-12T06:12:19.036Z,6
2023-04-12T06:13:59.398Z,6
2023-04-12T06:15:39.833Z,6
2023-04-12T06:17:20.199Z,6
2023-04-12T06:19:00.809Z,5
2023-04-12T06:20:41.021Z,5
2023-04-12T06:22:21.357Z,5
2023-04-12T06:24:01.840Z,5
2023-04-12T06:25:42.154Z,5
2023-04-12T06:27:22.485Z,5
2023-04-12T06:29:02.865Z,6
2023-04-12T06:30:43.245Z,6
2023-04-12T06:32:23.588Z,6
2023-04-12T06:34:04.070Z,7
2023-04-12T06:35:44.556Z,8
2023-04-12T06:37:24.907Z,8
2023-04-12T06:39:05.339Z,9
2023-04-12T06:40:45.742Z,9
2023-04-12T06:42:26.252Z,9
2023-04-12T06:44:06.644Z,10
2023-04-12T06:45:47.110Z,10
2023-04-12T06:47:27.527Z,10
2023-04-12T06:49:07.940Z,10
2023-04-12T06:50:48.325Z,9
2023-04-12T06:52:28.722Z,9
2023-04-12T06:54:09.029Z,9
2023-04-12T06:55:49.359Z,9
2023-04-12T06:57:29.775Z,9
2023-04-12T06:59:10.081Z,9
2023-04-12T07:00:50.511Z,9
2023-04-12T07:02:30.868Z,9
2023-04-12T07:04:11.209Z,9
2023-04-12T07:05:51.591Z,8
2023-04-12T07:07:31.956Z,8
2023-04-12T07:09:12.287Z,8
2023-04-12T07:10:52.590Z,9
2023-04-12T07:12:32.947Z,9
2023-04-12T07:14:13.343Z,8
2023-04-12T07:15:53.759Z,8
2023-04-12T07:17:34.239Z,8
2023-04-12T07:19:14.572Z,8
2023-04-12T07:20:54.977Z,7
2023-04-12T07:22:35.366Z,7
2023-04-12T07:24:15.847Z,7
2023-04-12T07:25:56.266Z,7
2023-04-12T07:27:36.689Z,7
2023-04-12T07:29:17.155Z,7
2023-04-12T07:30:57.540Z,7
2023-04-12T07:32:38.124Z,7
2023-04-12T07:34:18.541Z,7
2023-04-12T07:35:58.899Z,7
2023-04-12T07:37:39.255Z,7
2023-04-12T07:39:19.739Z,8
2023-04-12T07:41:00.108Z,8
2023-04-12T07:42:40.511Z,8
2023-04-12T07:44:20.973Z,8
2023-04-12T07:46:01.365Z,7
2023-04-12T07:47:41.782Z,7
2023-04-12T07:49:22.108Z,7
2023-04-12T07:51:02.492Z,6
2023-04-12T07:52:42.924Z,6
2023-04-12T07:54:23.728Z,6
2023-04-12T07:56:03.693Z,6
2023-04-12T07:57:44.081Z,6
2023-04-12T07:59:24.481Z,7
2023-04-12T08:01:04.964Z,7
2023-04-12T08:02:45.502Z,7
2023-04-12T08:04:25.939Z,7
2023-04-12T08:06:06.254Z,7
2023-04-12T08:07:46.686Z,7
2023-04-12T08:09:27.117Z,7
2023-04-12T08:11:07.540Z,6
2023-04-12T08:12:47.978Z,7
2023-04-12T08:14:28.473Z,7
2023-04-12T08:16:08.808Z,7
2023-04-12T08:17:49.298Z,6
2023-04-12T08:19:29.623Z,6
2023-04-12T08:21:09.971Z,6
2023-04-12T08:22:50.314Z,6
2023-04-12T08:24:30.623Z,6
2023-04-12T08:26:10.905Z,6
2023-04-12T08:27:51.282Z,6
2023-04-12T08:29:31.593Z,6
2023-04-12T08:31:11.930Z,6
2023-04-12T08:32:52.258Z,6
2023-04-12T08:34:32.589Z,6
2023-04-12T08:36:13.122Z,6
2023-04-12T08:37:53.509Z,6
2023-04-12T08:39:34.035Z,7
2023-04-12T08:41:15.216Z,7
2023-04-12T08:42:54.825Z,7
2023-04-12T08:44:35.239Z,8
2023-04-12T08:46:16.050Z,8
2023-04-12T08:47:56.014Z,9
2023-04-12T08:49:36.355Z,9
2023-04-12T08:51:16.691Z,9
2023-04-12T08:52:57.136Z,9
2023-04-12T08:54:37.522Z,9
2023-04-12T08:56:17.855Z,8
2023-04-12T08:57:58.227Z,8
2023-04-12T08:59:38.577Z,9
2023-04-12T09:01:19.103Z,10
2023-04-12T09:02:59.582Z,10
2023-04-12T09:04:39.966Z,11
2023-04-12T09:06:20.304Z,13
2023-04-12T09:08:00.648Z,13
2023-04-12T09:09:41.000Z,14
2023-04-12T09:11:21.353Z,15
2023-04-12T09:13:01.807Z,16
2023-04-12T09:14:42.226Z,17
2023-04-12T09:16:22.769Z,18
2023-04-12T09:18:03.091Z,18
2023-04-12T09:19:43.512Z,17
2023-04-12T09:21:23.922Z,16
2023-04-12T09:23:04.242Z,15
2023-04-12T09:24:44.751Z,14
2023-04-12T09:26:25.208Z,14
2023-04-12T09:28:05.597Z,12
2023-04-12T09:29:46.055Z,11
2023-04-12T09:31:26.642Z,10
2023-04-12T09:33:07.032Z,8
2023-04-12T09:34:47.299Z,7
2023-04-12T09:36:27.661Z,7
2023-04-12T09:38:08.092Z,8
2023-04-12T09:39:48.474Z,8
2023-04-12T09:41:28.736Z,7
2023-04-12T09:43:09.053Z,8
2023-04-12T09:44:49.594Z,8
2023-04-12T09:46:30.114Z,10
2023-04-12T09:48:10.337Z,11
2023-04-12T09:49:50.801Z,13
2023-04-12T09:51:31.218Z,15
2023-04-12T09:53:11.527Z,14
2023-04-12T09:54:51.967Z,12
2023-04-12T09:56:32.548Z,11
2023-04-12T09:58:12.717Z,11
2023-04-12T09:59:52.998Z,11
2023-04-12T10:01:33.474Z,11
2023-04-12T10:03:13.950Z,11
2023-04-12T10:04:54.366Z,10
2023-04-12T10:06:34.700Z,11
2023-04-12T10:08:15.173Z,12
2023-04-12T10:09:55.543Z,13
2023-04-12T10:11:35.903Z,11
2023-04-12T10:13:16.255Z,11
2023-04-12T10:14:56.564Z,11
2023-04-12T10:16:37.050Z,11
2023-04-12T10:18:17.434Z,9
2023-04-12T10:19:57.806Z,7
2023-04-12T10:21:38.171Z,7
2023-04-12T10:23:18.545Z,8
2023-04-12T10:24:58.917Z,10
2023-04-12T10:26:39.350Z,11
2023-04-12T10:28:19.842Z,13
2023-04-12T10:30:00.278Z,12
2023-04-12T10:31:40.713Z,11
2023-04-12T10:33:21.262Z,7
2023-04-12T10:35:01.567Z,5
2023-04-12T10:36:41.924Z,5
2023-04-12T10:38:22.314Z,6
2023-04-12T10:40:02.698Z,9
2023-04-12T10:41:43.106Z,13
2023-04-12T10:43:23.549Z,14
2023-04-12T10:45:03.849Z,14
2023-04-12T10:46:44.274Z,14
2023-04-12T10:48:24.733Z,13
2023-04-12T10:50:05.063Z,10
2023-04-12T10:51:45.471Z,8
2023-04-12T10:53:25.827Z,7
2023-04-12T10:55:06.265Z,7
2023-04-12T10:56:46.696Z,8
2023-04-12T10:58:27.102Z,7
2023-04-12T11:00:07.413Z,7
2023-04-12T11:01:47.789Z,8
2023-04-12T11:03:28.189Z,8
2023-04-12T11:05:08.598Z,9
2023-04-12T11:06:48.875Z,10
2023-04-12T11:08:29.382Z,12
2023-04-12T11:10:09.796Z,11
2023-04-12T11:11:50.257Z,11
2023-04-12T11:13:30.703Z,11
2023-04-12T11:15:11.043Z,10
2023-04-12T11:16:51.512Z,9
2023-04-12T11:18:32.001Z,10
2023-04-12T11:20:12.417Z,10
2023-04-12T11:21:52.713Z,9
2023-04-12T11:23:33.150Z,7
2023-04-12T11:25:13.542Z,6
2023-04-12T11:26:54.010Z,5
2023-04-12T11:28:35.519Z,5
2023-04-12T11:30:14.858Z,5
2023-04-12T11:31:55.313Z,7
2023-04-12T11:33:35.659Z,8
2023-04-12T11:35:16.057Z,8
2023-04-12T11:36:56.472Z,9
2023-04-12T11:38:36.992Z,11
2023-04-12T11:40:17.404Z,12
2023-04-12T11:41:57.833Z,15
2023-04-12T11:43:38.360Z,17
2023-04-12T11:45:18.797Z,16
2023-04-12T11:46:59.092Z,15
2023-04-12T11:48:39.679Z,15
2023-04-12T11:50:19.916Z,15
2023-04-12T11:52:00.329Z,15
2023-04-12T11:53:40.721Z,15
2023-04-12T11:55:21.082Z,17
2023-04-12T11:57:02.884Z,18
2023-04-12T11:58:41.924Z,15
2023-04-12T12:00:22.312Z,15
2023-04-12T12:02:10.871Z,15
2023-04-12T12:03:43.515Z,15
2023-04-12T12:05:23.798Z,15
2023-04-12T12:07:04.236Z,14
2023-04-12T12:08:44.489Z,15
2023-04-12T12:10:40.080Z,13
2023-04-12T12:12:05.368Z,11
2023-04-12T12:13:45.736Z,11
2023-04-12T12:15:26.052Z,10
2023-04-12T12:17:06.448Z,12
2023-04-12T12:18:46.872Z,13
2023-04-12T12:20:27.292Z,15
2023-04-12T12:22:07.711Z,15
2023-04-12T12:23:48.048Z,13
2023-04-12T12:25:28.414Z,12
2023-04-12T12:27:08.889Z,11
2023-04-12T12:28:49.232Z,10
2023-04-12T12:30:29.623Z,11
2023-04-12T12:32:09.979Z,13
2023-04-12T12:33:50.302Z,14
2023-04-12T12:35:30.632Z,13
2023-04-12T12:37:11.036Z,14
2023-04-12T12:38:51.552Z,14
2023-04-12T12:40:31.788Z,14
2023-04-12T12:42:12.220Z,14
2023-04-12T12:43:52.802Z,12
2023-04-12T12:45:33.172Z,10
2023-04-12T12:47:14.783Z,10
2023-04-12T12:48:53.910Z,9
2023-04-12T12:50:34.330Z,9
2023-04-12T12:52:16.549Z,9
2023-04-12T12:53:55.059Z,8
2023-04-12T12:55:35.493Z,8
2023-04-12T12:57:15.959Z,8
2023-04-12T12:58:56.696Z,9
2023-04-12T13:00:36.802Z,9
2023-04-12T13:02:17.255Z,11
2023-04-12T13:03:57.762Z,12
2023-04-12T13:05:38.170Z,11
2023-04-12T13:07:18.620Z,7
2023-04-12T13:08:59.229Z,7
2023-04-12T13:10:39.444Z,10
2023-04-12T13:12:19.811Z,13
2023-04-12T13:14:00.212Z,13
2023-04-12T13:15:40.616Z,11
2023-04-12T13:17:21.111Z,10
2023-04-12T13:19:01.455Z,12
2023-04-12T13:20:41.868Z,19
2023-04-12T13:22:22.308Z,27
2023-04-12T13:24:02.743Z,40
2023-04-12T13:25:43.217Z,33
2023-04-12T13:27:23.639Z,54
2023-04-12T13:29:04.153Z,90
2023-04-12T13:30:44.511Z,70
2023-04-12T13:32:24.830Z,42
2023-04-12T13:34:05.092Z,52
2023-04-12T13:35:45.527Z,30
2023-04-12T13:37:25.874Z,33
2023-04-12T13:39:06.272Z,22
2023-04-12T13:40:46.669Z,20
2023-04-12T13:42:26.977Z,26
2023-04-12T13:44:07.484Z,34
2023-04-12T13:45:47.865Z,37
2023-04-12T13:47:28.311Z,34
2023-04-12T13:49:08.576Z,33
2023-04-12T13:50:50.605Z,34
2023-04-12T13:52:29.445Z,32
2023-04-12T13:54:09.807Z,72
2023-04-12T13:55:50.435Z,93
2023-04-12T13:57:30.713Z,34
2023-04-12T13:59:11.106Z,66
2023-04-12T14:00:51.500Z,44
2023-04-12T14:02:32.054Z,26
2023-04-12T14:04:12.432Z,25
2023-04-12T14:05:52.777Z,23
2023-04-12T14:07:33.156Z,23
2023-04-12T14:09:13.556Z,22
2023-04-12T14:10:53.919Z,25
2023-04-12T14:12:34.290Z,29
2023-04-12T14:14:16.665Z,33
2023-04-12T14:15:55.162Z,48
2023-04-12T14:17:35.676Z,42
2023-04-12T14:19:15.960Z,55
2023-04-12T14:20:56.378Z,45
2023-04-12T14:22:36.791Z,25
2023-04-12T14:24:17.205Z,25
2023-04-12T14:25:57.637Z,30
2023-04-12T14:27:38.052Z,92
2023-04-12T14:29:18.465Z,83
2023-04-12T14:30:58.865Z,34
2023-04-12T14:32:39.318Z,25
2023-04-12T14:34:19.681Z,18
2023-04-12T14:36:00.162Z,17
2023-04-12T14:37:40.596Z,21
2023-04-12T14:39:20.970Z,53
2023-04-12T14:41:01.480Z,73
2023-04-12T14:42:41.800Z,43
2023-04-12T14:44:24.708Z,99
2023-04-12T14:46:02.640Z,53
2023-04-12T14:47:43.077Z,61
2023-04-12T14:49:23.445Z,90
2023-04-12T14:51:03.834Z,81
2023-04-12T14:52:44.221Z,51
2023-04-12T14:54:24.724Z,32
2023-04-12T14:56:05.168Z,39
2023-04-12T14:57:45.576Z,27
2023-04-12T14:59:26.071Z,30
2023-04-12T15:01:06.324Z,43
2023-04-12T15:02:46.820Z,29
2023-04-12T15:04:27.136Z,21
2023-04-12T15:06:07.447Z,15
2023-04-12T15:07:49.116Z,13
2023-04-12T15:09:28.245Z,14
2023-04-12T15:11:08.698Z,16
2023-04-12T15:12:49.100Z,16
2023-04-12T15:14:29.582Z,15
2023-04-12T15:16:09.979Z,15
2023-04-12T15:17:50.348Z,14
2023-04-12T15:19:30.727Z,12
2023-04-12T15:21:11.120Z,12
2023-04-12T15:22:51.450Z,11
2023-04-12T15:24:31.895Z,12
2023-04-12T15:26:12.350Z,11
2023-04-12T15:27:52.733Z,9
2023-04-12T15:29:33.122Z,8
2023-04-12T15:31:13.534Z,8
2023-04-12T15:32:54.058Z,8
2023-04-12T15:34:34.429Z,9
2023-04-12T15:36:14.803Z,10
2023-04-12T15:37:55.590Z,12
2023-04-12T15:39:35.718Z,14
2023-04-12T15:41:16.051Z,13
2023-04-12T15:42:56.449Z,11
2023-04-12T15:44:36.911Z,9
2023-04-12T15:46:17.348Z,8
2023-04-12T15:47:57.663Z,7
2023-04-12T15:49:38.000Z,6
2023-04-12T15:51:18.399Z,5
2023-04-12T15:52:58.699Z,5
2023-04-12T15:54:40.606Z,5
2023-04-12T15:56:19.543Z,3
2023-04-12T15:57:59.924Z,3
2023-04-12T15:59:40.283Z,3
2023-04-12T16:01:20.826Z,4
2023-04-12T16:03:01.247Z,3
2023-04-12T16:04:41.681Z,2
2023-04-12T16:06:21.902Z,2
2023-04-12T16:08:02.346Z,2
2023-04-12T16:09:42.807Z,1
2023-04-12T16:11:23.217Z,1
2023-04-12T16:13:03.626Z,1
2023-04-12T16:14:44.051Z,2
2023-04-12T16:16:24.452Z,2
2023-04-12T16:18:07.873Z,2
2023-04-12T16:19:45.142Z,4
2023-04-12T16:21:25.432Z,6
2023-04-12T16:23:05.838Z,10
2023-04-12T16:24:46.190Z,13
2023-04-12T16:26:26.656Z,11
2023-04-12T16:28:07.030Z,10
2023-04-12T16:29:47.441Z,9
2023-04-12T16:31:27.932Z,9
2023-04-12T16:33:08.332Z,9
2023-04-12T16:34:48.751Z,14
2023-04-12T16:36:32.200Z,16
2023-04-12T16:38:09.598Z,15
2023-04-12T16:39:50.059Z,16
2023-04-12T16:41:30.457Z,17
2023-04-12T16:43:10.865Z,29
2023-04-12T16:44:51.212Z,16
2023-04-12T16:46:31.668Z,15
2023-04-12T16:48:12.010Z,15
2023-04-12T16:49:52.374Z,20
2023-04-12T16:51:37.365Z,73
2023-04-12T16:53:13.080Z,74
2023-04-12T16:54:53.378Z,73
2023-04-12T16:56:33.696Z,64
2023-04-12T16:58:14.021Z,32
2023-04-12T16:59:54.476Z,69
2023-04-12T17:01:34.879Z,66
2023-04-12T17:03:16.592Z,12
2023-04-12T17:04:55.694Z,41
2023-04-12T17:06:36.067Z,52
2023-04-12T17:08:16.466Z,48
2023-04-12T17:09:56.889Z,34
2023-04-12T17:11:37.269Z,26
2023-04-12T17:13:20.068Z,17
2023-04-12T17:14:58.106Z,11
2023-04-12T17:16:38.532Z,10
2023-04-12T17:18:18.826Z,8
2023-04-12T17:19:59.213Z,7
2023-04-12T17:21:39.676Z,6
2023-04-12T17:23:20.049Z,6
2023-04-12T17:25:00.556Z,5
2023-04-12T17:26:41.056Z,4
2023-04-12T17:28:21.504Z,3
2023-04-12T17:30:01.990Z,3
2023-04-12T17:31:42.368Z,2
2023-04-12T17:33:22.849Z,2
2023-04-12T17:35:03.245Z,2
2023-04-12T17:36:43.648Z,1
2023-04-12T17:38:23.992Z,1
2023-04-12T17:40:04.552Z,1
2023-04-12T17:41:44.988Z,0
2023-04-12T17:43:25.404Z,0
2023-04-12T17:45:05.716Z,1
2023-04-12T17:46:46.146Z,1
2023-04-12T17:48:26.440Z,2
2023-04-12T17:50:06.863Z,2
2023-04-12T17:51:47.256Z,1
2023-04-12T17:53:27.687Z,1
2023-04-12T17:55:08.075Z,1
2023-04-12T17:56:48.488Z,0
2023-04-12T17:58:28.938Z,0
2023-04-12T18:00:09.361Z,0
2023-04-12T18:01:49.748Z,0
2023-04-12T18:03:30.327Z,0
2023-04-12T18:05:10.451Z,0
2023-04-12T18:06:50.789Z,0
2023-04-12T18:08:31.322Z,0
2023-04-12T18:10:11.669Z,0
2023-04-12T18:11:52.046Z,0
2023-04-12T18:13:32.426Z,0
2023-04-12T18:15:12.814Z,0
2023-04-12T18:16:53.194Z,0
2023-04-12T18:18:33.579Z,0
2023-04-12T18:20:14.016Z,0
2023-04-12T18:21:54.400Z,0
2023-04-12T18:23:34.900Z,0
2023-04-12T18:25:15.286Z,0
2023-04-12T18:26:55.634Z,0
2023-04-12T18:28:36.023Z,0
2023-04-12T18:30:16.425Z,0
2023-04-12T18:31:56.912Z,0
2023-04-12T18:33:37.256Z,0
2023-04-12T18:35:17.597Z,0
2023-04-12T18:36:57.858Z,0
2023-04-12T18:38:38.264Z,0
2023-04-12T18:40:18.686Z,0
2023-04-12T18:41:59.103Z,0
2023-04-12T18:43:39.476Z,0
2023-04-12T18:45:19.924Z,0
2023-04-12T18:47:00.408Z,0
2023-04-12T18:48:40.682Z,0
2023-04-12T18:50:21.043Z,0
2023-04-12T18:52:01.477Z,0
2023-04-12T18:53:41.936Z,0
2023-04-12T18:55:22.279Z,0
2023-04-12T18:57:02.763Z,0
2023-04-12T18:58:54.570Z,0
2023-04-12T19:00:23.667Z,0
2023-04-12T19:02:04.081Z,0
2023-04-12T19:03:44.482Z,0
2023-04-12T19:05:24.723Z,0
2023-04-12T19:07:05.109Z,0
2023-04-12T19:08:45.520Z,0
2023-04-12T19:10:25.911Z,0
2023-04-12T19:12:06.350Z,0
2023-04-12T19:13:46.782Z,0
2023-04-12T19:15:27.222Z,0
2023-04-12T19:17:07.557Z,0
2023-04-12T19:18:47.958Z,0
2023-04-12T19:20:28.363Z,0
2023-04-12T19:22:11.876Z,0
2023-04-12T19:23:49.345Z,0
2023-04-12T19:25:29.672Z,0
2023-04-12T19:27:10.081Z,0
2023-04-12T19:28:50.410Z,0
2023-04-12T19:30:30.749Z,0
2023-04-12T19:32:11.185Z,0
2023-04-12T19:33:51.685Z,0
2023-04-12T19:35:32.057Z,0
2023-04-12T19:37:12.465Z,0
2023-04-12T19:38:52.903Z,0
2023-04-12T19:40:33.248Z,0
2023-04-12T19:42:13.692Z,0
2023-04-12T19:43:54.072Z,0
2023-04-12T19:45:34.565Z,0
2023-04-12T19:47:14.955Z,0
2023-04-12T19:48:55.283Z,0
2023-04-12T19:50:35.669Z,0
2023-04-12T19:52:16.021Z,0
2023-04-12T19:53:56.671Z,0
2023-04-12T19:55:36.891Z,0
2023-04-12T19:57:17.339Z,0
2023-04-12T19:58:57.970Z,0
2023-04-12T20:00:38.055Z,0
2023-04-12T20:02:18.469Z,0
2023-04-12T20:03:58.870Z,0
2023-04-12T20:05:39.196Z,0
2023-04-12T20:07:19.497Z,0
2023-04-12T20:09:00.253Z,0
2023-04-12T20:10:40.365Z,0
2023-04-12T20:12:20.810Z,0
2023-04-12T20:14:01.242Z,0
2023-04-12T20:15:41.682Z,0
2023-04-12T20:17:22.087Z,0
2023-04-12T20:19:02.511Z,0
2023-04-12T20:20:42.950Z,0
2023-04-12T20:22:23.387Z,0
2023-04-12T20:24:03.796Z,0
2023-04-12T20:25:44.225Z,0
2023-04-12T20:27:24.594Z,0
2023-04-12T20:29:04.976Z,0
2023-04-12T20:30:45.381Z,0
2023-04-12T20:32:25.729Z,0
2023-04-12T20:34:06.087Z,0
2023-04-12T20:35:46.550Z,0
2023-04-12T20:37:26.921Z,0
2023-04-12T20:39:07.375Z,0
2023-04-12T20:40:47.845Z,0
2023-04-12T20:42:28.234Z,0
2023-04-12T20:44:08.670Z,0
2023-04-12T20:45:49.104Z,0
2023-04-12T20:47:29.393Z,0
2023-04-12T20:49:09.728Z,0
2023-04-12T20:50:50.090Z,0
2023-04-12T20:52:30.412Z,0
2023-04-12T20:54:10.847Z,0
2023-04-12T20:55:51.239Z,0
2023-04-12T20:57:31.658Z,0
2023-04-12T20:59:12.051Z,0
2023-04-12T21:00:52.412Z,0
2023-04-12T21:02:32.971Z,0
2023-04-12T21:04:13.235Z,0
2023-04-12T21:05:53.570Z,0
2023-04-12T21:07:34.009Z,0
2023-04-12T21:09:14.352Z,0
2023-04-12T21:10:54.705Z,0
2023-04-12T21:12:35.103Z,0
2023-04-12T21:14:15.501Z,0
2023-04-12T21:15:55.967Z,0
2023-04-12T21:17:36.470Z,0
2023-04-12T21:19:16.837Z,0
2023-04-12T21:20:57.294Z,0
2023-04-12T21:22:37.761Z,0
2023-04-12T21:24:18.132Z,0
2023-04-12T21:25:58.600Z,0
2023-04-12T21:27:38.961Z,0
2023-04-12T21:29:19.403Z,0
2023-04-12T21:30:59.771Z,0
2023-04-12T21:32:40.244Z,0
2023-04-12T21:34:20.486Z,0
2023-04-12T21:36:00.885Z,0
2023-04-12T21:37:41.301Z,0
2023-04-12T21:39:21.675Z,0
2023-04-12T21:41:01.944Z,0
2023-04-12T21:42:42.233Z,0
2023-04-12T21:44:22.572Z,0
2023-04-12T21:46:03.006Z,0
2023-04-12T21:47:43.337Z,0
2023-04-12T21:49:23.630Z,0
2023-04-12T21:51:04.037Z,0
2023-04-12T21:52:44.455Z,0
2023-04-12T21:54:24.928Z,0
2023-04-12T21:56:05.345Z,0
2023-04-12T21:57:45.776Z,0
2023-04-12T21:59:26.126Z,0
2023-04-12T22:01:06.613Z,0
2023-04-12T22:02:47.180Z,0
2023-04-12T22:04:27.485Z,0
2023-04-12T22:06:08.017Z,0
2023-04-12T22:07:48.425Z,0
2023-04-12T22:09:28.843Z,0
2023-04-12T22:11:09.317Z,0
2023-04-12T22:12:49.748Z,0
2023-04-12T22:14:30.176Z,0
2023-04-12T22:16:10.529Z,0
2023-04-12T22:17:50.980Z,0
2023-04-12T22:19:31.370Z,0
2023-04-12T22:21:11.756Z,0
2023-04-12T22:22:52.192Z,0
2023-04-12T22:24:32.569Z,0
2023-04-12T22:26:12.951Z,0
2023-04-12T22:27:53.377Z,0
2023-04-12T22:29:33.757Z,0
2023-04-12T22:31:14.421Z,0
2023-04-12T22:32:54.582Z,0
2023-04-12T22:34:34.905Z,0
2023-04-12T22:36:15.280Z,0
2023-04-12T22:37:55.705Z,0
2023-04-12T22:39:36.073Z,0
2023-04-12T22:41:16.499Z,0
2023-04-12T22:42:56.841Z,0
2023-04-12T22:44:37.225Z,0
2023-04-12T22:46:17.707Z,0
2023-04-12T22:47:58.050Z,0
2023-04-12T22:49:38.431Z,0
2023-04-12T22:51:18.803Z,0
2023-04-12T22:52:59.189Z,0
2023-04-12T22:54:39.651Z,0
2023-04-12T22:56:19.946Z,0
2023-04-12T22:58:00.379Z,0
2023-04-12T22:59:40.754Z,0
2023-04-12T23:01:21.128Z,0
2023-04-12T23:03:01.603Z,0
2023-04-12T23:04:41.896Z,0
2023-04-12T23:06:22.241Z,0
2023-04-12T23:08:02.678Z,0
2023-04-12T23:09:43.083Z,0
2023-04-12T23:11:23.474Z,0
2023-04-12T23:13:03.894Z,0
2023-04-12T23:14:44.340Z,0
2023-04-12T23:16:24.784Z,0
2023-04-12T23:18:05.196Z,0
2023-04-12T23:19:45.391Z,0
2023-04-12T23:21:25.763Z,0
2023-04-12T23:23:06.211Z,0
2023-04-12T23:24:46.553Z,0
2023-04-12T23:26:26.845Z,0
2023-04-12T23:28:07.270Z,0
2023-04-12T23:29:47.692Z,0
2023-04-12T23:31:28.051Z,0
2023-04-12T23:33:08.426Z,0
2023-04-12T23:34:48.848Z,0
2023-04-12T23:36:29.332Z,0
2023-04-12T23:38:09.787Z,0
2023-04-12T23:39:50.161Z,0
2023-04-12T23:41:30.621Z,0
2023-04-12T23:43:11.013Z,0
2023-04-12T23:44:51.420Z,0
2023-04-12T23:46:31.856Z,0
2023-04-12T23:48:12.262Z,0
2023-04-12T23:49:52.578Z,0
2023-04-12T23:51:32.995Z,0
2023-04-12T23:53:13.351Z,0
2023-04-12T23:54:53.771Z,0
2023-04-12T23:56:34.214Z,0
2023-04-12T23:58:14.609Z,0
2023-04-12T23:59:55.017Z,0
